createdAt,value
2023-01-20T00:00:26.720Z,-3.30
2023-01-20T00:02:54.560Z,-3.10
2023-01-20T00:05:22.368Z,-3.00
2023-01-20T00:07:50.145Z,-3.30
2023-01-20T00:10:18.358Z,-3.50
2023-01-20T00:12:46.133Z,-3.50
2023-01-20T00:15:15.765Z,-3.50
2023-01-20T00:17:43.637Z,-3.40
2023-01-20T00:20:13.086Z,-3.40
2023-01-20T00:22:42.308Z,-3.30
2023-01-20T00:25:10.837Z,-3.50
2023-01-20T00:27:38.642Z,-3.50
2023-01-20T00:30:07.734Z,-3.50
2023-01-20T00:32:39.396Z,-3.60
2023-01-20T00:35:08.356Z,-3.70
2023-01-20T00:37:36.120Z,-3.70
2023-01-20T00:40:04.127Z,-3.70
2023-01-20T00:42:31.952Z,-3.60
2023-01-20T00:44:59.720Z,-2.80
2023-01-20T00:47:27.489Z,-2.90
2023-01-20T00:49:56.596Z,-3.00
2023-01-20T00:52:24.362Z,-3.00
2023-01-20T00:54:52.108Z,-3.50
2023-01-20T00:57:19.894Z,-3.40
2023-01-20T00:59:47.660Z,-3.40
2023-01-20T01:02:15.445Z,-3.40
2023-01-20T01:04:43.355Z,-3.50
2023-01-20T01:07:12.465Z,-3.40
2023-01-20T01:09:40.232Z,-3.00
2023-01-20T01:12:08.046Z,-3.00
2023-01-20T01:14:35.966Z,-3.20
2023-01-20T01:17:03.717Z,-3.40
2023-01-20T01:19:31.494Z,-3.30
2023-01-20T01:21:59.264Z,-3.40
2023-01-20T01:24:28.376Z,-3.40
2023-01-20T01:26:56.160Z,-3.50
2023-01-20T01:29:24.058Z,-3.40
2023-01-20T01:31:51.803Z,-3.40
2023-01-20T01:34:19.581Z,-3.40
2023-01-20T01:36:47.345Z,-3.50
2023-01-20T01:39:15.127Z,-3.50
2023-01-20T01:41:44.223Z,-3.40
2023-01-20T01:44:12.761Z,-3.40
2023-01-20T01:46:40.595Z,-3.40
2023-01-20T01:49:09.857Z,-3.50
2023-01-20T01:51:39.299Z,-3.70
2023-01-20T01:54:09.499Z,-3.70
2023-01-20T01:56:37.268Z,-3.60
2023-01-20T01:59:06.413Z,-3.60
2023-01-20T02:01:34.231Z,-3.50
2023-01-20T02:04:04.611Z,-3.50
2023-01-20T02:06:34.404Z,-3.60
2023-01-20T02:09:02.797Z,-3.30
2023-01-20T02:11:30.712Z,-3.30
2023-01-20T02:13:58.476Z,-3.40
2023-01-20T02:16:32.064Z,-3.40
2023-01-20T02:19:06.521Z,-3.50
2023-01-20T02:22:10.835Z,-3.60
2023-01-20T02:25:11.533Z,-3.60
2023-01-20T02:28:03.889Z,-3.60
2023-01-20T02:30:39.652Z,-3.50
2023-01-20T02:33:09.519Z,-3.40
2023-01-20T02:35:38.666Z,-3.20
2023-01-20T02:38:11.930Z,-3.40
2023-01-20T02:40:43.152Z,-3.50
2023-01-20T02:43:12.421Z,-3.60
2023-01-20T02:45:43.908Z,-3.50
2023-01-20T02:48:16.178Z,-3.50
2023-01-20T02:50:46.612Z,-3.50
2023-01-20T02:53:14.372Z,-3.50
2023-01-20T02:55:43.559Z,-3.50
2023-01-20T02:58:12.912Z,-3.50
2023-01-20T03:00:42.425Z,-3.60
2023-01-20T03:03:13.320Z,-3.60
2023-01-20T03:05:42.489Z,-3.60
2023-01-20T03:08:10.844Z,-3.60
2023-01-20T03:10:39.006Z,-3.50
2023-01-20T03:13:10.352Z,-3.50
2023-01-20T03:15:41.317Z,-3.60
2023-01-20T03:18:09.104Z,-3.60
2023-01-20T03:20:38.695Z,-3.50
2023-01-20T03:23:06.469Z,-3.50
2023-01-20T03:25:34.256Z,-3.40
2023-01-20T03:28:02.021Z,-3.50
2023-01-20T03:30:29.866Z,-3.50
2023-01-20T03:32:57.640Z,-3.50
2023-01-20T03:35:25.399Z,-3.20
2023-01-20T03:37:54.485Z,-3.10
2023-01-20T03:40:22.251Z,-3.00
2023-01-20T03:42:53.617Z,-3.10
2023-01-20T03:45:24.768Z,-3.30
2023-01-20T03:47:56.964Z,-3.30
2023-01-20T03:50:32.648Z,-3.20
2023-01-20T03:53:05.470Z,-3.20
2023-01-20T03:55:35.188Z,-3.40
2023-01-20T03:58:04.664Z,-3.30
2023-01-20T04:00:32.770Z,-3.30
2023-01-20T04:03:01.681Z,-3.40
2023-01-20T04:05:29.535Z,-3.60
2023-01-20T04:07:57.875Z,-3.40
2023-01-20T04:10:26.977Z,-3.30
2023-01-20T04:12:55.155Z,-3.20
2023-01-20T04:15:22.968Z,-3.40
2023-01-20T04:17:50.716Z,-3.50
2023-01-20T04:20:18.487Z,-3.50
2023-01-20T04:22:48.987Z,-3.50
2023-01-20T04:25:23.261Z,-3.60
2023-01-20T04:27:52.364Z,-3.50
2023-01-20T04:30:20.311Z,-3.60
2023-01-20T04:32:48.157Z,-3.50
2023-01-20T04:35:17.051Z,-3.30
2023-01-20T04:37:44.913Z,-3.30
2023-01-20T04:40:13.324Z,-3.20
2023-01-20T04:42:41.063Z,-3.30
2023-01-20T04:45:11.033Z,-3.40
2023-01-20T04:47:38.771Z,-3.40
2023-01-20T04:50:07.475Z,-3.50
2023-01-20T04:52:35.225Z,-3.50
2023-01-20T04:55:03.071Z,-3.30
2023-01-20T04:57:30.821Z,-3.40
2023-01-20T04:59:58.616Z,-3.50
2023-01-20T05:02:27.789Z,-3.60
2023-01-20T05:04:55.605Z,-3.80
2023-01-20T05:07:23.364Z,-2.50
2023-01-20T05:09:51.113Z,-2.80
2023-01-20T05:12:18.900Z,-3.20
2023-01-20T05:14:46.665Z,-3.10
2023-01-20T05:17:14.425Z,-3.00
2023-01-20T05:19:43.964Z,-3.40
2023-01-20T05:22:11.757Z,-3.50
2023-01-20T05:24:39.670Z,-3.00
2023-01-20T05:27:07.430Z,-3.30
2023-01-20T05:29:35.176Z,-3.30
2023-01-20T05:32:02.957Z,-3.40
2023-01-20T05:34:30.731Z,-3.40
2023-01-20T05:36:59.832Z,-3.10
2023-01-20T05:39:27.702Z,-3.30
2023-01-20T05:41:55.471Z,-3.00
2023-01-20T05:44:23.439Z,-2.90
2023-01-20T05:46:51.192Z,-3.10
2023-01-20T05:49:18.942Z,-3.20
2023-01-20T05:51:46.705Z,-3.20
2023-01-20T05:54:15.819Z,-3.10
2023-01-20T05:56:43.594Z,-3.00
2023-01-20T05:59:11.373Z,-3.10
2023-01-20T06:01:40.522Z,-3.00
2023-01-20T06:04:08.355Z,-3.20
2023-01-20T06:06:36.146Z,-3.10
2023-01-20T06:09:04.083Z,-3.20
2023-01-20T06:11:33.222Z,-3.20
2023-01-20T06:14:00.993Z,-3.00
2023-01-20T06:16:29.714Z,-3.10
2023-01-20T06:18:57.656Z,-2.90
2023-01-20T06:21:25.834Z,-2.90
2023-01-20T06:23:54.242Z,-2.90
2023-01-20T06:26:21.999Z,-2.60
2023-01-20T06:28:51.084Z,-2.80
2023-01-20T06:31:18.966Z,-2.90
2023-01-20T06:33:46.792Z,-2.80
2023-01-20T06:36:16.973Z,-2.90
2023-01-20T06:38:48.359Z,-2.80
2023-01-20T06:41:16.121Z,-2.90
2023-01-20T06:43:43.894Z,-3.00
2023-01-20T06:46:13.761Z,-2.90
2023-01-20T06:48:41.587Z,-3.20
2023-01-20T06:51:10.974Z,-3.30
2023-01-20T06:53:38.747Z,-3.30
2023-01-20T06:56:07.631Z,-3.10
2023-01-20T06:58:35.411Z,-2.90
2023-01-20T07:01:08.673Z,-2.80
2023-01-20T07:03:37.909Z,-2.70
2023-01-20T07:06:06.753Z,-2.70
2023-01-20T07:08:34.495Z,-2.80
2023-01-20T07:11:02.261Z,-2.80
2023-01-20T07:13:30.025Z,-2.80
2023-01-20T07:15:57.838Z,-3.00
2023-01-20T07:18:25.633Z,-2.90
2023-01-20T07:20:55.945Z,-2.90
2023-01-20T07:23:24.743Z,-2.90
2023-01-20T07:25:58.652Z,-3.00
2023-01-20T07:28:26.413Z,-3.10
2023-01-20T07:30:54.201Z,-2.90
2023-01-20T07:33:22.056Z,-2.80
2023-01-20T07:35:53.654Z,-2.60
2023-01-20T07:38:22.832Z,-2.50
2023-01-20T07:40:50.592Z,-2.60
2023-01-20T07:43:18.384Z,-2.90
2023-01-20T07:45:46.218Z,-2.90
2023-01-20T07:48:14.068Z,-2.80
2023-01-20T07:50:41.821Z,-2.90
2023-01-20T07:53:09.587Z,-3.10
2023-01-20T07:55:38.680Z,-3.20
2023-01-20T07:58:06.468Z,-3.10
2023-01-20T08:00:34.221Z,-3.00
2023-01-20T08:03:02.034Z,-2.60
2023-01-20T08:05:29.771Z,-2.50
2023-01-20T08:07:57.542Z,-2.70
2023-01-20T08:10:25.392Z,-2.60
2023-01-20T08:12:54.541Z,-2.60
2023-01-20T08:15:22.291Z,-2.70
2023-01-20T08:17:54.054Z,-2.80
2023-01-20T08:20:21.812Z,-2.80
2023-01-20T08:22:49.591Z,-2.60
2023-01-20T08:25:17.722Z,-2.60
2023-01-20T08:27:45.551Z,-2.50
2023-01-20T08:30:15.289Z,-2.20
2023-01-20T08:32:43.054Z,-2.30
2023-01-20T08:35:10.871Z,-2.40
2023-01-20T08:37:38.626Z,-2.30
2023-01-20T08:40:08.367Z,-2.10
2023-01-20T08:42:36.233Z,-2.30
2023-01-20T08:45:04.557Z,-2.30
2023-01-20T08:47:36.099Z,-2.30
2023-01-20T08:50:04.076Z,-2.50
2023-01-20T08:52:31.847Z,-2.40
2023-01-20T08:54:59.738Z,-2.30
2023-01-20T08:57:27.548Z,-2.20
2023-01-20T08:59:55.563Z,-2.20
2023-01-20T09:02:24.610Z,-2.10
2023-01-20T09:04:54.519Z,-2.10
2023-01-20T09:07:22.303Z,-1.80
2023-01-20T09:09:50.058Z,-1.80
2023-01-20T09:12:17.800Z,-1.90
2023-01-20T09:14:45.608Z,-1.30
2023-01-20T09:17:14.651Z,-0.40
2023-01-20T09:19:42.433Z,-0.40
2023-01-20T09:22:11.549Z,-0.90
2023-01-20T09:24:40.271Z,-1.20
2023-01-20T09:27:08.020Z,-1.40
2023-01-20T09:29:36.692Z,-1.40
2023-01-20T09:32:04.795Z,-1.30
2023-01-20T09:34:32.682Z,-1.50
2023-01-20T09:37:21.188Z,-1.40
2023-01-20T09:40:07.925Z,-1.40
2023-01-20T09:42:56.961Z,-1.40
2023-01-20T09:45:26.075Z,-1.60
2023-01-20T09:47:56.868Z,-1.70
2023-01-20T09:50:56.499Z,-1.60
2023-01-20T09:53:32.660Z,-1.50
2023-01-20T09:56:02.650Z,-1.30
2023-01-20T09:58:33.828Z,-1.40
2023-01-20T10:01:07.404Z,-1.40
2023-01-20T10:03:37.946Z,-1.30
2023-01-20T10:06:07.984Z,-1.40
2023-01-20T10:08:37.113Z,-1.30
2023-01-20T10:11:07.452Z,-1.40
2023-01-20T10:13:37.243Z,-1.30
2023-01-20T10:16:06.474Z,-1.20
2023-01-20T10:18:37.853Z,-1.20
2023-01-20T10:21:09.316Z,-1.40
2023-01-20T10:23:41.009Z,-1.20
2023-01-20T10:26:12.582Z,-1.10
2023-01-20T10:28:41.485Z,-1.10
2023-01-20T10:31:09.314Z,-1.00
2023-01-20T10:33:38.625Z,-1.10
2023-01-20T10:36:09.859Z,-1.00
2023-01-20T10:38:41.039Z,-1.00
2023-01-20T10:41:19.820Z,-1.00
2023-01-20T10:43:47.748Z,-0.80
2023-01-20T10:46:26.644Z,-0.80
2023-01-20T10:49:07.266Z,-0.80
2023-01-20T10:51:36.974Z,-0.80
2023-01-20T10:54:10.493Z,-0.80
2023-01-20T10:56:43.753Z,-0.80
2023-01-20T10:59:15.167Z,-0.80
2023-01-20T11:01:43.311Z,-0.80
2023-01-20T11:04:17.466Z,-0.60
2023-01-20T11:06:45.454Z,-0.50
2023-01-20T11:09:20.587Z,-0.70
2023-01-20T11:11:49.811Z,-0.50
2023-01-20T11:14:17.574Z,-0.50
2023-01-20T11:16:48.089Z,-0.60
2023-01-20T11:19:15.939Z,-0.60
2023-01-20T11:21:43.751Z,-0.40
2023-01-20T11:24:33.162Z,-0.40
2023-01-20T11:27:05.604Z,-0.40
2023-01-20T11:29:35.477Z,-0.40
2023-01-20T11:32:03.258Z,-0.40
2023-01-20T11:34:31.701Z,-0.30
2023-01-20T11:37:18.632Z,-0.30
2023-01-20T11:39:58.324Z,-0.30
2023-01-20T11:42:28.153Z,-0.30
2023-01-20T11:45:01.110Z,-0.20
2023-01-20T11:47:34.185Z,0.00
2023-01-20T11:50:26.403Z,-0.10
2023-01-20T11:52:54.165Z,-0.30
2023-01-20T11:55:23.259Z,-0.20
2023-01-20T11:57:53.890Z,-0.20
2023-01-20T12:00:38.110Z,-0.20
2023-01-20T12:03:26.732Z,-0.10
2023-01-20T12:05:56.601Z,0.00
2023-01-20T12:08:27.338Z,-0.10
2023-01-20T12:10:55.573Z,-0.20
2023-01-20T12:13:27.236Z,-0.20
2023-01-20T12:15:56.258Z,-0.50
2023-01-20T12:18:28.399Z,-0.40
2023-01-20T12:20:58.671Z,-0.30
2023-01-20T12:23:33.975Z,-0.40
2023-01-20T12:26:02.719Z,-0.40
2023-01-20T12:28:35.142Z,-0.60
2023-01-20T12:31:03.036Z,-0.40
2023-01-20T12:33:31.847Z,-0.20
2023-01-20T12:36:47.587Z,-0.30
2023-01-20T12:39:33.899Z,-0.50
2023-01-20T12:42:20.632Z,-0.30
2023-01-20T12:44:51.321Z,-0.30
2023-01-20T12:47:26.861Z,-0.30
2023-01-20T12:50:13.120Z,-0.60
2023-01-20T12:52:47.439Z,-0.40
2023-01-20T12:55:20.064Z,-0.30
2023-01-20T12:57:58.750Z,-0.30
2023-01-20T13:00:37.929Z,-0.40
2023-01-20T13:03:17.592Z,-0.40
2023-01-20T13:06:01.112Z,-0.30
2023-01-20T13:08:36.489Z,-0.40
2023-01-20T13:11:09.709Z,-0.30
2023-01-20T13:13:55.677Z,-0.40
2023-01-20T13:27:51.348Z,-0.40
2023-01-20T13:34:35.279Z,-0.50
2023-01-20T13:41:28.383Z,-0.60
2023-01-20T13:43:57.842Z,-0.60
2023-01-20T13:46:46.641Z,-0.60
2023-01-20T13:49:16.433Z,-0.60
2023-01-20T13:51:45.568Z,-0.60
2023-01-20T13:54:38.777Z,-0.60
2023-01-20T13:57:34.636Z,-0.60
2023-01-20T14:00:12.797Z,-0.70
2023-01-20T14:02:40.800Z,-0.70
2023-01-20T14:05:21.720Z,-0.90
2023-01-20T14:07:49.587Z,-0.90
2023-01-20T14:10:18.132Z,-0.90
2023-01-20T14:12:46.657Z,-0.80
2023-01-20T14:15:36.979Z,-1.00
2023-01-20T14:18:15.157Z,-0.90
2023-01-20T14:20:43.136Z,-1.00
2023-01-20T14:23:26.348Z,-1.00
2023-01-20T14:26:06.444Z,-1.10
2023-01-20T14:28:35.508Z,-1.10
2023-01-20T14:31:21.784Z,-1.10
2023-01-20T14:33:56.201Z,-1.10
2023-01-20T14:36:24.330Z,-1.10
2023-01-20T14:38:58.240Z,-1.20
2023-01-20T14:41:27.836Z,-1.20
2023-01-20T14:43:55.790Z,-1.20
2023-01-20T14:46:25.405Z,-1.20
2023-01-20T14:48:54.313Z,-1.20
2023-01-20T14:51:23.698Z,-1.10
2023-01-20T14:54:32.266Z,-1.10
2023-01-20T14:57:01.073Z,-1.20
2023-01-20T14:59:28.971Z,-1.00
2023-01-20T15:02:01.784Z,-1.10
2023-01-20T15:04:36.112Z,-1.00
2023-01-20T15:07:05.695Z,-1.10
2023-01-20T15:09:34.570Z,-1.20
2023-01-20T15:12:39.573Z,-1.10
2023-01-20T15:15:25.833Z,-1.20
2023-01-20T15:18:21.373Z,-1.20
2023-01-20T15:20:50.999Z,-1.20
2023-01-20T15:23:24.702Z,-1.20
2023-01-20T15:29:34.681Z,-1.40
2023-01-20T15:32:03.217Z,-1.30
2023-01-20T15:34:32.502Z,-1.20
2023-01-20T15:37:00.541Z,-1.30
2023-01-20T15:39:30.338Z,-1.20
2023-01-20T15:41:58.403Z,-1.20
2023-01-20T15:44:27.049Z,-1.30
2023-01-20T15:46:57.355Z,-1.20
2023-01-20T15:49:25.940Z,-1.20
2023-01-20T15:51:55.214Z,-1.00
2023-01-20T15:54:23.096Z,-1.00
2023-01-20T15:56:50.992Z,-1.10
2023-01-20T15:59:20.348Z,-1.20
2023-01-20T16:02:00.337Z,-1.20
2023-01-20T16:04:28.769Z,-1.10
2023-01-20T16:06:58.006Z,-1.30
2023-01-20T16:09:26.581Z,-1.30
2023-01-20T16:11:54.545Z,-1.40
2023-01-20T16:14:22.432Z,-1.40
2023-01-20T16:16:50.748Z,-1.30
2023-01-20T16:19:18.651Z,-1.30
2023-01-20T16:21:46.690Z,-1.30
2023-01-20T16:24:15.953Z,-1.50
2023-01-20T16:26:43.782Z,-1.50
2023-01-20T16:29:11.715Z,-1.50
2023-01-20T16:31:39.624Z,-1.50
2023-01-20T16:34:08.292Z,-1.30
2023-01-20T16:36:36.264Z,-1.40
2023-01-20T16:39:04.156Z,-1.50
2023-01-20T16:41:33.517Z,-1.40
2023-01-20T16:44:01.593Z,-1.30
2023-01-20T16:46:31.540Z,-1.30
2023-01-20T16:49:01.738Z,-1.30
2023-01-20T16:51:30.507Z,-1.30
2023-01-20T16:53:58.479Z,-1.30
2023-01-20T16:56:27.704Z,-1.40
2023-01-20T16:58:58.361Z,-1.50
2023-01-20T17:01:26.391Z,-1.40
2023-01-20T17:03:55.472Z,-1.40
2023-01-20T17:06:24.420Z,-1.40
2023-01-20T17:08:53.394Z,-1.40
2023-01-20T17:11:21.721Z,-1.40
2023-01-20T17:13:50.655Z,-1.30
2023-01-20T17:16:20.126Z,-1.30
2023-01-20T17:18:51.053Z,-1.40
2023-01-20T17:21:20.595Z,-1.30
2023-01-20T17:23:51.512Z,-1.40
2023-01-20T17:26:19.484Z,-1.40
2023-01-20T17:28:47.720Z,-1.40
2023-01-20T17:31:15.856Z,-1.30
2023-01-20T17:33:48.025Z,-1.20
2023-01-20T17:36:17.550Z,-1.20
2023-01-20T17:38:45.464Z,-1.20
2023-01-20T17:41:13.863Z,-1.30
2023-01-20T17:43:43.065Z,-0.80
2023-01-20T17:46:15.694Z,-0.90
2023-01-20T17:48:43.698Z,-1.00
2023-01-20T17:51:13.557Z,-1.20
2023-01-20T17:53:41.641Z,-1.20
2023-01-20T17:56:13.101Z,-1.20
2023-01-20T17:58:41.462Z,-1.20
2023-01-20T18:01:13.245Z,-1.20
2023-01-20T18:03:42.936Z,-1.30
2023-01-20T18:06:13.293Z,-1.30
2023-01-20T18:08:41.267Z,-1.40
2023-01-20T18:11:10.615Z,-1.50
2023-01-20T18:13:38.558Z,-1.50
2023-01-20T18:16:07.191Z,-1.40
2023-01-20T18:18:35.285Z,-1.40
2023-01-20T18:21:10.201Z,-1.50
2023-01-20T18:23:39.589Z,-1.40
2023-01-20T18:26:07.690Z,-1.60
2023-01-20T18:28:35.937Z,-1.40
2023-01-20T18:31:08.486Z,-1.40
2023-01-20T18:33:38.305Z,-1.40
2023-01-20T18:36:06.939Z,-1.40
2023-01-20T18:38:35.262Z,-1.40
2023-01-20T18:41:04.496Z,-1.40
2023-01-20T18:43:32.564Z,-1.40
2023-01-20T18:46:00.464Z,-1.40
2023-01-20T18:48:28.345Z,-1.30
2023-01-20T18:50:59.781Z,-1.50
2023-01-20T18:53:27.923Z,-1.40
2023-01-20T18:56:00.680Z,-1.40
2023-01-20T18:58:30.057Z,-1.60
2023-01-20T19:01:03.705Z,-1.50
2023-01-20T19:03:31.734Z,-1.40
2023-01-20T19:06:05.066Z,-1.30
2023-01-20T19:08:32.990Z,-1.30
2023-01-20T19:11:01.676Z,-1.60
2023-01-20T19:13:30.976Z,-1.60
2023-01-20T19:16:01.791Z,-1.50
2023-01-20T19:18:29.709Z,-1.50
2023-01-20T19:20:57.536Z,-1.30
2023-01-20T19:23:25.444Z,-1.40
2023-01-20T19:26:01.015Z,-1.40
2023-01-20T19:28:30.366Z,-1.30
2023-01-20T19:31:05.274Z,-1.40
2023-01-20T19:33:33.328Z,-1.40
2023-01-20T19:36:01.486Z,-1.40
2023-01-20T19:38:29.487Z,-1.50
2023-01-20T19:40:58.641Z,-1.50
2023-01-20T19:43:26.514Z,-1.50
2023-01-20T19:45:55.809Z,-1.50
2023-01-20T19:48:23.716Z,-1.60
2023-01-20T19:50:51.984Z,-1.10
2023-01-20T19:53:20.178Z,-1.00
2023-01-20T19:55:49.206Z,-1.00
2023-01-20T19:58:17.121Z,-1.10
2023-01-20T20:00:45.172Z,-1.20
2023-01-20T20:03:14.424Z,-1.40
2023-01-20T20:05:43.997Z,-1.30
2023-01-20T20:08:11.866Z,-1.20
2023-01-20T20:10:42.534Z,-1.40
2023-01-20T20:13:10.577Z,-1.40
2023-01-20T20:15:38.499Z,-1.40
2023-01-20T20:18:06.914Z,-1.30
2023-01-20T20:20:36.124Z,-1.20
2023-01-20T20:23:04.094Z,-1.20
2023-01-20T20:25:32.157Z,-1.30
2023-01-20T20:28:00.037Z,-1.40
2023-01-20T20:30:28.150Z,-1.30
2023-01-20T20:32:56.329Z,-1.40
2023-01-20T20:35:24.367Z,-1.40
2023-01-20T20:37:54.741Z,-1.40
2023-01-20T20:40:25.207Z,-1.20
2023-01-20T20:42:54.666Z,-1.20
2023-01-20T20:45:22.553Z,-1.40
2023-01-20T20:47:50.886Z,-1.30
2023-01-20T20:50:19.282Z,-1.20
2023-01-20T20:52:47.272Z,-1.30
2023-01-20T20:55:16.668Z,-1.30
2023-01-20T20:57:44.556Z,-1.30
2023-01-20T21:00:13.769Z,-1.40
2023-01-20T21:02:43.136Z,-1.30
2023-01-20T21:05:11.239Z,-1.20
2023-01-20T21:07:39.092Z,-1.30
2023-01-20T21:10:09.899Z,-1.40
2023-01-20T21:12:39.125Z,-1.20
2023-01-20T21:15:08.735Z,-1.30
2023-01-20T21:17:36.716Z,-1.10
2023-01-20T21:20:04.768Z,-1.10
2023-01-20T21:22:32.670Z,0.60
2023-01-20T21:25:00.819Z,1.10
2023-01-20T21:27:28.989Z,0.10
2023-01-20T21:29:58.564Z,-0.60
2023-01-20T21:32:26.559Z,-1.10
2023-01-20T21:34:55.133Z,-1.20
2023-01-20T21:37:22.955Z,-1.30
2023-01-20T21:39:50.948Z,-1.20
2023-01-20T21:42:18.827Z,-1.30
2023-01-20T21:44:46.933Z,-1.40
2023-01-20T21:47:16.216Z,-1.30
2023-01-20T21:50:01.595Z,-1.40
2023-01-20T21:52:45.392Z,-1.40
2023-01-20T21:55:15.984Z,-1.50
2023-01-20T21:57:43.952Z,-1.30
2023-01-20T22:00:13.006Z,-1.30
2023-01-20T22:02:43.413Z,-1.30
2023-01-20T22:05:11.292Z,-1.20
2023-01-20T22:07:39.153Z,-1.30
2023-01-20T22:10:08.163Z,-1.10
2023-01-20T22:12:36.065Z,-1.10
2023-01-20T22:15:04.311Z,-1.20
2023-01-20T22:17:32.481Z,-1.30
2023-01-20T22:20:01.835Z,-1.30
2023-01-20T22:22:29.711Z,-1.20
2023-01-20T22:24:57.923Z,-1.20
2023-01-20T22:27:25.807Z,-1.30
2023-01-20T22:29:54.028Z,-1.40
2023-01-20T22:32:21.870Z,-1.40
2023-01-20T22:34:49.775Z,-1.40
2023-01-20T22:37:19.121Z,-1.50
2023-01-20T22:39:48.940Z,-1.50
2023-01-20T22:42:16.909Z,-1.50
2023-01-20T22:44:44.828Z,-1.50
2023-01-20T22:47:12.766Z,-1.50
2023-01-20T22:49:40.622Z,-1.40
2023-01-20T22:52:08.624Z,-1.40
2023-01-20T22:54:37.835Z,-1.40
2023-01-20T22:57:05.757Z,-1.40
2023-01-20T22:59:33.701Z,-1.40
2023-01-20T23:02:01.624Z,-1.50
2023-01-20T23:04:29.528Z,-1.50
2023-01-20T23:06:57.506Z,-1.40
2023-01-20T23:09:25.387Z,-1.40
2023-01-20T23:11:54.906Z,-1.40
2023-01-20T23:14:42.789Z,-1.40
2023-01-20T23:17:10.636Z,-1.50
2023-01-20T23:19:38.690Z,-1.50
2023-01-20T23:22:06.846Z,-1.50
2023-01-20T23:24:34.848Z,-1.40
2023-01-20T23:27:05.306Z,-1.50
2023-01-20T23:29:33.500Z,-1.50
2023-01-20T23:32:01.460Z,-1.40
2023-01-20T23:34:29.442Z,-1.40
2023-01-20T23:36:57.350Z,-1.40
2023-01-20T23:39:25.293Z,-1.50
2023-01-20T23:41:54.852Z,-1.50
2023-01-20T23:44:24.057Z,-1.50
2023-01-20T23:46:52.046Z,-1.40
2023-01-20T23:49:22.449Z,-1.40
2023-01-20T23:51:50.524Z,-1.50
2023-01-20T23:54:18.358Z,-1.40
2023-01-20T23:56:46.277Z,-1.50
2023-01-20T23:59:14.128Z,-1.50
